Terminal Aerodrome Forecast
Issued by NWS

Home | Current Version | Previous Version | Text Only | Print | Product List | Glossary On
Versions: 1 2 3 4 5 6 7 8 9 10 11 12 13 14 15 16
000
FTUS43 KDVN 232329
TAFBRL
TAF
KBRL 232329Z 2400/2424 23009KT P6SM SCT250
     FM241100 17008KT P6SM VCTS SCT060CB BKN200
     FM241300 20007KT P6SM VCTS BKN050CB PROB30 2413/2419 4SM -TSRA
      BKN035CB OVC050=

USA.gov is the U.S. government's official web portal to all federal, state and local government web resources and services.